Time;durP1;ratioP1;P1;durP2;ratioP2;P2;SDS_P1;SDS_P2;PMS_P1;PMS_P2;Temp;Humidity;BMP_temperature;BMP_pressure;BME280_temperature;BME280_humidity;BME280_pressure;Samples;Min_cycle;Max_cycle;Signal;HPM_P1;HPM_P2
2021/03/01 00:00:14;;;;;;;30.10;20.90;;;;;;;;;;5090116;28;20169;-41
2021/03/01 00:02:39;;;;;;;26.83;18.00;;;;;;;;;;5106121;28;20182;-41
2021/03/01 00:05:05;;;;;;;28.20;20.17;;;;;;;;;;5109853;28;20259;-41
2021/03/01 00:07:30;;;;;;;31.73;20.90;;;;;;;;;;5105049;28;20178;-41
2021/03/01 00:09:56;;;;;;;25.30;19.53;;;;;;;;;;5103669;28;20645;-41
2021/03/01 00:12:21;;;;;;;26.50;19.40;;;;;;;;;;5109993;28;20188;-42
2021/03/01 00:14:46;;;;;;;26.47;17.17;;;;;;;;;;5102659;28;20296;-42
2021/03/01 00:17:11;;;;;;;25.43;18.27;;;;;;;;;;5092113;28;20166;-41
2021/03/01 00:19:36;;;;;;;25.63;17.95;;;;;;;;;;5103523;28;20843;-42
2021/03/01 00:22:01;;;;;;;22.98;17.50;;;;;;;;;;5107661;28;20166;-42
2021/03/01 00:24:26;;;;;;;24.20;17.60;;;;;;;;;;5100193;28;20182;-41
2021/03/01 00:26:52;;;;;;;22.65;17.35;;;;;;;;;;5102545;28;20186;-41
2021/03/01 00:29:17;;;;;;;26.00;18.70;;;;;;;;;;5105679;28;20181;-41
2021/03/01 00:31:42;;;;;;;25.20;18.15;;;;;;;;;;5104334;28;20699;-41
2021/03/01 00:34:07;;;;;;;31.17;20.00;;;;;;;;;;5099809;28;20185;-42
2021/03/01 00:36:32;;;;;;;27.70;17.57;;;;;;;;;;5098044;28;20168;-42
2021/03/01 00:39:00;;;;;;;22.33;16.77;;;;;;;;;;5109388;28;20170;-41
2021/03/01 00:41:25;;;;;;;27.57;17.40;;;;;;;;;;5109253;28;20700;-41
2021/03/01 00:43:50;;;;;;;24.47;17.17;;;;;;;;;;5090280;28;20699;-42
2021/03/01 00:46:15;;;;;;;24.40;17.07;;;;;;;;;;5097838;28;20280;-42
2021/03/01 00:48:40;;;;;;;20.00;15.38;;;;;;;;;;5090587;28;20650;-42
2021/03/01 00:51:05;;;;;;;18.75;14.25;;;;;;;;;;5102156;28;20253;-42
2021/03/01 00:53:31;;;;;;;27.37;16.70;;;;;;;;;;5109387;28;20205;-42
2021/03/01 00:55:56;;;;;;;21.48;16.85;;;;;;;;;;5107915;28;20327;-42
2021/03/01 00:58:21;;;;;;;23.57;16.60;;;;;;;;;;5109427;28;20171;-42
2021/03/01 01:00:48;;;;;;;21.10;16.43;;;;;;;;;;5100694;28;20182;-42
2021/03/01 01:03:14;;;;;;;20.20;15.20;;;;;;;;;;5093290;28;20167;-41
2021/03/01 01:05:39;;;;;;;26.10;17.17;;;;;;;;;;5093306;28;20602;-41
2021/03/01 01:08:04;;;;;;;21.07;15.93;;;;;;;;;;5094617;28;20677;-41
2021/03/01 01:10:30;;;;;;;18.97;14.00;;;;;;;;;;5111322;28;20181;-41
2021/03/01 01:12:55;;;;;;;18.93;14.60;;;;;;;;;;5112827;28;20563;-41
2021/03/01 01:15:20;;;;;;;17.70;14.43;;;;;;;;;;5104646;28;20223;-41
2021/03/01 01:17:45;;;;;;;18.03;14.33;;;;;;;;;;5109272;28;20167;-42
2021/03/01 01:20:12;;;;;;;19.25;14.65;;;;;;;;;;5099478;28;20192;-41
2021/03/01 01:22:37;;;;;;;19.20;14.47;;;;;;;;;;5109546;28;20180;-41
2021/03/01 01:25:03;;;;;;;21.07;14.50;;;;;;;;;;5112811;28;21059;-42
2021/03/01 01:27:29;;;;;;;21.00;14.57;;;;;;;;;;5096800;28;20181;-42
2021/03/01 01:29:54;;;;;;;18.00;14.37;;;;;;;;;;5098615;28;20591;-42
2021/03/01 01:32:19;;;;;;;19.42;13.98;;;;;;;;;;5107056;28;20171;-40
2021/03/01 01:34:44;;;;;;;18.07;12.73;;;;;;;;;;5104150;28;20259;-40
2021/03/01 01:37:09;;;;;;;14.88;12.80;;;;;;;;;;5092386;28;20253;-40
2021/03/01 01:39:34;;;;;;;18.13;13.25;;;;;;;;;;5101079;28;20197;-42
2021/03/01 01:41:59;;;;;;;20.20;15.17;;;;;;;;;;5101216;28;20223;-42
2021/03/01 01:44:25;;;;;;;17.45;13.80;;;;;;;;;;5112695;28;20249;-42
2021/03/01 01:46:50;;;;;;;14.25;12.40;;;;;;;;;;5111745;28;20722;-42
2021/03/01 01:49:15;;;;;;;16.37;12.70;;;;;;;;;;5110770;28;20174;-43
2021/03/01 01:51:42;;;;;;;18.13;12.93;;;;;;;;;;5108601;28;20174;-42
2021/03/01 01:54:07;;;;;;;17.83;12.60;;;;;;;;;;5112217;28;20206;-42
2021/03/01 01:56:33;;;;;;;17.07;13.10;;;;;;;;;;5098508;28;20600;-42
2021/03/01 01:58:58;;;;;;;15.23;12.27;;;;;;;;;;5112471;28;20241;-43
2021/03/01 02:01:23;;;;;;;15.90;12.43;;;;;;;;;;5111701;28;20185;-42
2021/03/01 02:03:52;;;;;;;13.85;11.55;;;;;;;;;;5103080;28;20182;-41
2021/03/01 02:06:17;;;;;;;18.37;13.77;;;;;;;;;;5091734;28;20214;-41
2021/03/01 02:08:42;;;;;;;17.27;13.63;;;;;;;;;;5091879;28;20630;-41
2021/03/01 02:11:15;;;;;;;14.13;12.63;;;;;;;;;;5108094;28;20170;-41
2021/03/01 02:13:45;;;;;;;15.30;11.60;;;;;;;;;;5111033;28;20202;-41
2021/03/01 02:16:19;;;;;;;14.50;12.03;;;;;;;;;;5097298;28;20618;-41
2021/03/01 02:18:45;;;;;;;13.87;11.37;;;;;;;;;;5111940;28;20619;-40
2021/03/01 02:21:11;;;;;;;18.70;12.53;;;;;;;;;;5105650;28;20624;-40
2021/03/01 02:23:37;;;;;;;17.33;12.13;;;;;;;;;;5092579;28;20604;-41
2021/03/01 02:26:04;;;;;;;17.73;12.50;;;;;;;;;;5102996;28;20585;-41
2021/03/01 02:28:31;;;;;;;14.03;11.40;;;;;;;;;;5105105;28;20983;-41
2021/03/01 02:30:58;;;;;;;17.53;12.40;;;;;;;;;;5106675;28;20597;-40
2021/03/01 02:33:29;;;;;;;12.90;10.50;;;;;;;;;;5091358;28;20928;-41
2021/03/01 02:35:57;;;;;;;14.20;10.87;;;;;;;;;;5111591;28;21196;-41
2021/03/01 02:38:24;;;;;;;19.60;12.33;;;;;;;;;;5111573;28;20872;-42
2021/03/01 02:40:50;;;;;;;13.97;10.97;;;;;;;;;;5105063;28;20624;-42
2021/03/01 02:43:16;;;;;;;14.30;10.37;;;;;;;;;;5091878;28;20671;-42
2021/03/01 02:45:42;;;;;;;14.90;10.60;;;;;;;;;;5111287;28;20705;-42
2021/03/01 02:48:08;;;;;;;11.97;10.40;;;;;;;;;;5097804;28;20210;-45
2021/03/01 02:50:34;;;;;;;12.97;10.20;;;;;;;;;;5100831;28;20627;-41
2021/03/01 02:52:59;;;;;;;12.00;9.93;;;;;;;;;;5099384;28;20215;-41
2021/03/01 02:55:25;;;;;;;12.70;10.30;;;;;;;;;;5094794;28;20220;-41
2021/03/01 02:57:51;;;;;;;12.00;9.60;;;;;;;;;;5105784;28;20189;-41
2021/03/01 03:00:16;;;;;;;12.63;9.67;;;;;;;;;;5105801;28;20167;-47
2021/03/01 03:02:42;;;;;;;11.20;9.97;;;;;;;;;;5092112;28;20208;-42
2021/03/01 03:05:08;;;;;;;9.43;8.43;;;;;;;;;;5090748;28;20200;-42
2021/03/01 03:07:34;;;;;;;11.07;9.50;;;;;;;;;;5091756;28;20185;-41
2021/03/01 03:10:00;;;;;;;9.33;8.20;;;;;;;;;;5106633;28;20177;-40
2021/03/01 03:12:25;;;;;;;11.80;9.50;;;;;;;;;;5097943;28;20607;-41
2021/03/01 03:14:51;;;;;;;12.07;9.97;;;;;;;;;;5107329;27;20197;-41
2021/03/01 03:17:18;;;;;;;11.50;9.77;;;;;;;;;;5105826;28;20240;-42
2021/03/01 03:19:43;;;;;;;12.17;9.57;;;;;;;;;;5103698;28;20232;-42
2021/03/01 03:22:08;;;;;;;13.80;10.33;;;;;;;;;;5092219;28;20600;-41
2021/03/01 03:24:34;;;;;;;12.20;9.60;;;;;;;;;;5110162;28;20230;-42
2021/03/01 03:26:59;;;;;;;14.27;11.07;;;;;;;;;;5124557;27;20196;-42
2021/03/01 03:29:24;;;;;;;16.27;11.23;;;;;;;;;;5122166;27;20174;-42
2021/03/01 03:31:49;;;;;;;17.27;11.25;;;;;;;;;;5110230;28;20230;-42
2021/03/01 03:34:15;;;;;;;13.43;10.40;;;;;;;;;;5110585;28;20831;-41
2021/03/01 03:36:42;;;;;;;11.73;9.63;;;;;;;;;;5110107;28;20201;-41
2021/03/01 03:39:11;;;;;;;12.57;9.70;;;;;;;;;;5109862;28;20170;-41
2021/03/01 03:41:37;;;;;;;13.73;10.53;;;;;;;;;;5110468;28;20888;-42
2021/03/01 03:44:04;;;;;;;12.90;10.40;;;;;;;;;;5111077;27;20612;-43
2021/03/01 03:46:29;;;;;;;14.60;10.47;;;;;;;;;;5103767;28;20653;-41
2021/03/01 03:48:55;;;;;;;9.73;8.70;;;;;;;;;;5103503;28;21201;-40
2021/03/01 03:51:21;;;;;;;10.80;9.20;;;;;;;;;;5095660;28;20183;-41
2021/03/01 03:53:51;;;;;;;11.80;9.53;;;;;;;;;;5094278;28;20254;-41
2021/03/01 03:56:20;;;;;;;12.70;9.23;;;;;;;;;;5108178;28;20602;-41
2021/03/01 03:58:48;;;;;;;13.20;9.23;;;;;;;;;;5089534;28;20584;-41
2021/03/01 04:01:13;;;;;;;12.87;10.20;;;;;;;;;;5093887;28;21223;-42
2021/03/01 04:03:40;;;;;;;14.07;10.00;;;;;;;;;;5109317;28;20600;-41
2021/03/01 04:06:05;;;;;;;11.70;9.20;;;;;;;;;;5102383;28;20171;-42
2021/03/01 04:08:31;;;;;;;12.53;10.30;;;;;;;;;;5093594;28;20598;-42
2021/03/01 04:10:58;;;;;;;12.53;10.00;;;;;;;;;;5109240;28;20655;-42
2021/03/01 04:13:25;;;;;;;12.60;9.13;;;;;;;;;;5103382;28;20602;-42
2021/03/01 04:15:50;;;;;;;12.17;9.93;;;;;;;;;;5108575;28;20583;-42
2021/03/01 04:18:17;;;;;;;11.37;8.97;;;;;;;;;;5088966;28;20630;-42
2021/03/01 04:20:42;;;;;;;11.70;9.57;;;;;;;;;;5098448;28;20201;-42
2021/03/01 04:23:08;;;;;;;11.27;8.87;;;;;;;;;;5095333;28;21192;-41
2021/03/01 04:25:33;;;;;;;9.87;8.40;;;;;;;;;;5111576;27;20543;-41
2021/03/01 04:27:59;;;;;;;12.33;9.20;;;;;;;;;;5119511;28;20619;-41
2021/03/01 04:30:24;;;;;;;9.87;8.73;;;;;;;;;;5111619;28;20725;-40
2021/03/01 04:32:50;;;;;;;11.47;9.57;;;;;;;;;;5107858;28;20757;-41
2021/03/01 04:35:17;;;;;;;10.97;8.73;;;;;;;;;;5125610;27;20753;-41
2021/03/01 04:37:42;;;;;;;9.83;8.83;;;;;;;;;;5120968;27;20598;-41
2021/03/01 04:40:08;;;;;;;10.60;8.40;;;;;;;;;;5108197;27;20634;-42
2021/03/01 04:42:34;;;;;;;12.57;9.40;;;;;;;;;;5099487;28;22108;-42
2021/03/01 04:45:00;;;;;;;10.47;9.03;;;;;;;;;;5102448;28;20177;-42
2021/03/01 04:47:26;;;;;;;11.37;9.60;;;;;;;;;;5100635;28;20716;-42
2021/03/01 04:49:52;;;;;;;10.27;9.20;;;;;;;;;;5116109;27;20232;-42
2021/03/01 04:52:17;;;;;;;10.07;7.80;;;;;;;;;;5102035;28;20547;-41
2021/03/01 04:54:42;;;;;;;11.77;9.27;;;;;;;;;;5101691;28;20647;-41
2021/03/01 04:57:08;;;;;;;12.87;8.90;;;;;;;;;;5125053;27;20178;-41
2021/03/01 04:59:34;;;;;;;10.03;8.47;;;;;;;;;;5114159;27;20683;-41
2021/03/01 05:01:59;;;;;;;10.17;7.77;;;;;;;;;;5113247;27;20602;-41
2021/03/01 05:04:24;;;;;;;9.33;7.90;;;;;;;;;;5117852;27;20193;-42
2021/03/01 05:06:49;;;;;;;8.70;7.80;;;;;;;;;;5103643;27;20249;-39
2021/03/01 05:09:15;;;;;;;9.70;8.30;;;;;;;;;;5122215;27;20178;-40
2021/03/01 05:11:40;;;;;;;7.80;6.70;;;;;;;;;;5112535;27;20287;-42
2021/03/01 05:14:06;;;;;;;7.73;6.93;;;;;;;;;;5129622;27;20224;-40
2021/03/01 05:16:32;;;;;;;8.17;7.23;;;;;;;;;;5104590;28;20260;-40
2021/03/01 05:18:57;;;;;;;11.07;8.90;;;;;;;;;;5111483;28;20663;-42
2021/03/01 05:21:23;;;;;;;8.90;8.00;;;;;;;;;;5119664;27;20742;-41
2021/03/01 05:23:48;;;;;;;8.60;7.30;;;;;;;;;;5106887;28;20635;-42
2021/03/01 05:26:14;;;;;;;8.60;7.80;;;;;;;;;;5109593;28;20170;-42
2021/03/01 05:28:39;;;;;;;8.10;7.27;;;;;;;;;;5106481;28;20734;-41
2021/03/01 05:31:04;;;;;;;8.57;7.67;;;;;;;;;;5106106;28;20192;-42
2021/03/01 05:33:30;;;;;;;7.90;7.10;;;;;;;;;;5099523;28;20367;-42
2021/03/01 05:35:55;;;;;;;7.95;6.97;;;;;;;;;;5094234;28;20183;-41
2021/03/01 05:38:20;;;;;;;8.33;7.37;;;;;;;;;;5097484;28;20185;-41
2021/03/01 05:40:46;;;;;;;9.13;7.87;;;;;;;;;;5096933;28;20206;-41
2021/03/01 05:43:13;;;;;;;9.70;8.70;;;;;;;;;;5105059;28;20409;-43
2021/03/01 05:45:38;;;;;;;9.23;8.10;;;;;;;;;;5105847;28;20671;-42
2021/03/01 05:48:05;;;;;;;8.60;7.47;;;;;;;;;;5092435;28;20611;-42
2021/03/01 05:50:31;;;;;;;8.40;7.30;;;;;;;;;;5102340;28;20186;-43
2021/03/01 05:53:00;;;;;;;9.00;8.10;;;;;;;;;;5099036;28;21226;-43
2021/03/01 05:55:25;;;;;;;9.10;7.70;;;;;;;;;;5099338;28;20218;-43
2021/03/01 05:57:50;;;;;;;9.10;7.80;;;;;;;;;;5088152;28;21487;-42
2021/03/01 06:00:16;;;;;;;9.30;7.43;;;;;;;;;;5100063;28;20227;-41
2021/03/01 06:02:41;;;;;;;9.80;8.70;;;;;;;;;;5097605;28;20582;-41
2021/03/01 06:05:06;;;;;;;9.90;7.77;;;;;;;;;;5108699;28;20171;-41
2021/03/01 06:07:31;;;;;;;10.53;9.30;;;;;;;;;;5107920;28;20205;-41
2021/03/01 06:09:56;;;;;;;11.70;8.90;;;;;;;;;;5106726;28;20183;-41
2021/03/01 06:12:22;;;;;;;10.18;9.05;;;;;;;;;;5108277;28;20188;-41
2021/03/01 06:14:47;;;;;;;10.63;9.00;;;;;;;;;;5116951;27;20229;-41
2021/03/01 06:17:16;;;;;;;10.43;9.13;;;;;;;;;;5104246;27;20187;-41
2021/03/01 06:19:45;;;;;;;10.83;9.13;;;;;;;;;;5108940;28;20231;-41
2021/03/01 06:22:10;;;;;;;11.17;9.30;;;;;;;;;;5107079;28;20591;-41
2021/03/01 06:24:35;;;;;;;11.60;9.60;;;;;;;;;;5099963;28;20595;-41
2021/03/01 06:27:00;;;;;;;11.40;9.63;;;;;;;;;;5109705;28;20178;-41
2021/03/01 06:29:25;;;;;;;10.77;9.07;;;;;;;;;;5091352;28;20270;-40
2021/03/01 06:31:50;;;;;;;10.00;8.73;;;;;;;;;;5103361;28;20640;-40
2021/03/01 06:34:29;;;;;;;10.10;8.82;;;;;;;;;;5110826;28;20197;-41
2021/03/01 06:37:07;;;;;;;10.70;9.17;;;;;;;;;;5111057;28;20246;-43
2021/03/01 06:39:36;;;;;;;10.90;9.30;;;;;;;;;;5110636;28;20643;-41
2021/03/01 06:42:16;;;;;;;10.30;8.73;;;;;;;;;;5110794;28;20612;-41
2021/03/01 06:44:41;;;;;;;10.10;9.10;;;;;;;;;;5111108;28;20975;-42
2021/03/01 06:47:07;;;;;;;11.70;9.43;;;;;;;;;;5110581;28;20749;-41
2021/03/01 06:49:34;;;;;;;10.15;9.05;;;;;;;;;;5110773;28;20701;-41
2021/03/01 06:51:59;;;;;;;10.00;8.93;;;;;;;;;;5110595;28;20298;-41
2021/03/01 06:54:26;;;;;;;9.70;8.10;;;;;;;;;;5110477;28;20635;-41
2021/03/01 06:56:51;;;;;;;10.77;8.93;;;;;;;;;;5110624;28;20177;-43
2021/03/01 06:59:17;;;;;;;10.67;8.70;;;;;;;;;;5106356;28;20685;-41
2021/03/01 07:01:44;;;;;;;11.40;9.50;;;;;;;;;;5109817;28;20206;-41
2021/03/01 07:04:09;;;;;;;10.63;8.70;;;;;;;;;;5110914;28;20583;-41
2021/03/01 07:06:35;;;;;;;12.10;9.83;;;;;;;;;;5095371;28;20593;-42
2021/03/01 07:09:00;;;;;;;11.27;8.17;;;;;;;;;;5090520;28;20671;-41
2021/03/01 07:11:27;;;;;;;10.13;8.80;;;;;;;;;;5103905;28;20604;-41
2021/03/01 07:13:58;;;;;;;8.73;7.83;;;;;;;;;;5110643;28;20258;-40
2021/03/01 07:16:23;;;;;;;10.10;8.83;;;;;;;;;;5105317;28;20581;-40
2021/03/01 07:18:50;;;;;;;11.83;8.97;;;;;;;;;;5120893;27;20606;-41
2021/03/01 07:21:15;;;;;;;11.40;8.63;;;;;;;;;;5113444;27;20174;-40
2021/03/01 07:23:42;;;;;;;11.03;9.90;;;;;;;;;;5099013;28;20601;-40
2021/03/01 07:26:09;;;;;;;12.47;8.87;;;;;;;;;;5105823;28;20222;-40
2021/03/01 07:28:35;;;;;;;9.83;8.07;;;;;;;;;;5110562;28;20591;-41
2021/03/01 07:31:00;;;;;;;9.63;7.77;;;;;;;;;;5108925;28;20622;-41
2021/03/01 07:33:26;;;;;;;7.63;6.53;;;;;;;;;;5100800;28;21146;-41
2021/03/01 07:35:51;;;;;;;9.67;8.23;;;;;;;;;;5109735;28;20398;-41
2021/03/01 07:38:17;;;;;;;11.07;8.30;;;;;;;;;;5099167;28;20206;-41
2021/03/01 07:40:42;;;;;;;11.37;9.20;;;;;;;;;;5092135;28;20236;-42
2021/03/01 07:43:08;;;;;;;12.47;8.90;;;;;;;;;;5090906;28;20581;-41
2021/03/01 07:45:33;;;;;;;10.80;8.50;;;;;;;;;;5095482;28;20265;-41
2021/03/01 07:48:01;;;;;;;9.90;8.90;;;;;;;;;;5089815;28;20166;-42
2021/03/01 07:50:34;;;;;;;11.13;8.53;;;;;;;;;;5103502;28;20640;-41
2021/03/01 07:52:59;;;;;;;9.40;7.87;;;;;;;;;;5109081;28;21048;-42
2021/03/01 07:55:24;;;;;;;9.53;8.03;;;;;;;;;;5108660;28;20735;-41
2021/03/01 07:58:04;;;;;;;8.90;7.80;;;;;;;;;;5104405;28;20178;-42
2021/03/01 08:00:30;;;;;;;9.70;8.10;;;;;;;;;;5089243;28;20176;-41
2021/03/01 08:02:56;;;;;;;10.43;8.60;;;;;;;;;;5092953;28;20603;-41
2021/03/01 08:05:22;;;;;;;12.17;9.87;;;;;;;;;;5109545;28;20640;-42
2021/03/01 08:07:48;;;;;;;9.33;8.33;;;;;;;;;;5109534;28;20679;-42
2021/03/01 08:10:33;;;;;;;12.40;9.03;;;;;;;;;;5109259;28;20604;-42
2021/03/01 08:12:59;;;;;;;11.03;9.87;;;;;;;;;;5095188;28;20186;-42
2021/03/01 08:15:26;;;;;;;10.70;9.50;;;;;;;;;;5109506;28;20651;-42
2021/03/01 08:17:52;;;;;;;11.17;9.53;;;;;;;;;;5108975;28;21272;-42
2021/03/01 08:20:23;;;;;;;10.13;9.10;;;;;;;;;;5109204;28;20679;-41
2021/03/01 08:23:10;;;;;;;10.60;9.00;;;;;;;;;;5109637;28;20584;-42
2021/03/01 08:25:54;;;;;;;8.60;7.80;;;;;;;;;;5109406;28;20701;-43
2021/03/01 08:28:39;;;;;;;11.20;9.00;;;;;;;;;;5109301;28;20581;-41
2021/03/01 08:31:07;;;;;;;10.20;9.10;;;;;;;;;;5109155;28;20664;-41
2021/03/01 08:33:33;;;;;;;9.07;8.13;;;;;;;;;;5108976;28;20673;-42
2021/03/01 08:36:01;;;;;;;10.63;7.90;;;;;;;;;;5109185;28;21204;-42
2021/03/01 08:38:41;;;;;;;10.20;8.60;;;;;;;;;;5108915;28;20162;-41
2021/03/01 08:41:07;;;;;;;9.70;8.47;;;;;;;;;;5109156;28;20676;-42
2021/03/01 08:43:36;;;;;;;10.60;9.50;;;;;;;;;;5109141;28;20584;-42
2021/03/01 08:46:02;;;;;;;11.50;9.03;;;;;;;;;;5109347;28;20635;-41
2021/03/01 08:48:28;;;;;;;9.73;8.73;;;;;;;;;;5108917;28;21267;-42
2021/03/01 08:50:53;;;;;;;10.50;9.40;;;;;;;;;;5108628;28;20619;-42
2021/03/01 08:53:21;;;;;;;9.63;8.33;;;;;;;;;;5109213;28;20162;-42
2021/03/01 08:55:46;;;;;;;10.03;8.60;;;;;;;;;;5108965;28;20399;-42
2021/03/01 08:58:13;;;;;;;10.57;8.53;;;;;;;;;;5108873;28;20938;-40
2021/03/01 09:00:47;;;;;;;8.93;8.00;;;;;;;;;;5109094;28;20181;-42
2021/03/01 09:03:13;;;;;;;9.93;8.60;;;;;;;;;;5108632;28;20595;-42
2021/03/01 09:05:40;;;;;;;11.00;9.30;;;;;;;;;;5108857;28;20732;-42
2021/03/01 09:08:06;;;;;;;9.23;8.33;;;;;;;;;;5108493;28;20582;-41
2021/03/01 09:10:41;;;;;;;10.63;8.60;;;;;;;;;;5108463;28;20606;-42
2021/03/01 09:13:07;;;;;;;8.60;7.80;;;;;;;;;;5109165;28;20193;-41
2021/03/01 09:15:32;;;;;;;8.67;7.83;;;;;;;;;;5108521;28;20659;-41
2021/03/01 09:17:57;;;;;;;11.43;8.47;;;;;;;;;;5108752;28;20170;-42
2021/03/01 09:20:23;;;;;;;10.20;8.80;;;;;;;;;;5108361;28;20165;-42
2021/03/01 09:22:48;;;;;;;10.20;8.67;;;;;;;;;;5111475;28;20166;-43
2021/03/01 09:25:30;;;;;;;9.70;8.70;;;;;;;;;;5112781;28;20174;-42
2021/03/01 09:27:55;;;;;;;9.70;8.80;;;;;;;;;;5112236;28;20165;-42
2021/03/01 09:30:24;;;;;;;9.80;8.80;;;;;;;;;;5112605;28;20576;-42
2021/03/01 09:32:59;;;;;;;10.40;8.33;;;;;;;;;;5111965;28;20201;-43
2021/03/01 09:35:24;;;;;;;9.80;8.80;;;;;;;;;;5112104;28;21215;-43
2021/03/01 09:37:51;;;;;;;9.37;8.43;;;;;;;;;;5112008;28;20678;-42
2021/03/01 09:40:20;;;;;;;8.80;7.90;;;;;;;;;;5112258;28;20217;-42
2021/03/01 09:42:49;;;;;;;8.47;7.67;;;;;;;;;;5112579;28;20613;-41
2021/03/01 09:45:15;;;;;;;9.70;8.73;;;;;;;;;;5111936;28;20687;-41
2021/03/01 09:47:41;;;;;;;10.90;9.80;;;;;;;;;;5112111;28;21044;-41
2021/03/01 09:50:07;;;;;;;11.53;9.37;;;;;;;;;;5112419;28;20746;-42
2021/03/01 09:52:32;;;;;;;10.47;9.07;;;;;;;;;;5112152;28;20186;-41
2021/03/01 09:54:57;;;;;;;10.13;9.10;;;;;;;;;;5111867;28;21002;-42
2021/03/01 09:57:28;;;;;;;9.73;8.73;;;;;;;;;;5111913;28;20479;-41
2021/03/01 09:59:53;;;;;;;10.67;9.37;;;;;;;;;;5112166;28;20173;-42
2021/03/01 10:02:20;;;;;;;12.70;11.40;;;;;;;;;;5112049;28;20582;-42
2021/03/01 10:04:46;;;;;;;13.23;11.67;;;;;;;;;;5111548;28;20174;-42
2021/03/01 10:07:15;;;;;;;10.63;9.60;;;;;;;;;;5111721;28;20599;-42
2021/03/01 10:09:40;;;;;;;11.27;9.60;;;;;;;;;;5111300;28;20892;-41
2021/03/01 10:12:05;;;;;;;10.70;9.47;;;;;;;;;;5111991;28;20955;-41
2021/03/01 10:14:30;;;;;;;10.60;9.50;;;;;;;;;;5111123;28;20207;-42
2021/03/01 10:16:56;;;;;;;11.37;9.40;;;;;;;;;;5112019;28;20174;-41
2021/03/01 10:19:22;;;;;;;10.45;9.35;;;;;;;;;;5111134;28;20171;-41
2021/03/01 10:21:48;;;;;;;10.30;9.10;;;;;;;;;;5111664;28;20177;-41
2021/03/01 10:24:14;;;;;;;9.90;8.90;;;;;;;;;;5111157;28;20633;-42
2021/03/01 10:26:52;;;;;;;9.97;8.97;;;;;;;;;;5111231;28;20217;-43
2021/03/01 10:29:17;;;;;;;10.87;8.90;;;;;;;;;;5111265;28;20660;-44
2021/03/01 10:31:42;;;;;;;12.03;10.00;;;;;;;;;;5111443;28;20689;-42
2021/03/01 10:34:13;;;;;;;10.83;9.80;;;;;;;;;;5110017;28;20665;-41
2021/03/01 10:36:54;;;;;;;11.37;9.57;;;;;;;;;;5110251;28;20173;-42
2021/03/01 10:39:19;;;;;;;11.13;9.80;;;;;;;;;;5110811;28;20612;-42
2021/03/01 10:41:46;;;;;;;14.05;9.88;;;;;;;;;;5110869;28;20656;-42
2021/03/01 10:44:12;;;;;;;10.13;9.13;;;;;;;;;;5111282;28;20215;-42
2021/03/01 10:46:44;;;;;;;10.90;9.80;;;;;;;;;;5110875;28;20726;-43
2021/03/01 10:49:16;;;;;;;9.87;8.87;;;;;;;;;;5110872;28;20723;-42
2021/03/01 10:51:41;;;;;;;11.03;9.50;;;;;;;;;;5110507;28;20619;-42
2021/03/01 10:54:07;;;;;;;11.07;9.97;;;;;;;;;;5110919;28;20635;-42
2021/03/01 10:56:32;;;;;;;11.97;10.67;;;;;;;;;;5110521;28;20182;-42
2021/03/01 10:58:58;;;;;;;11.80;10.27;;;;;;;;;;5110785;28;20206;-42
2021/03/01 11:01:33;;;;;;;11.73;10.53;;;;;;;;;;5110997;28;20653;-42
2021/03/01 11:03:58;;;;;;;16.37;11.30;;;;;;;;;;5110578;28;20194;-40
2021/03/01 11:06:23;;;;;;;10.47;9.40;;;;;;;;;;5110425;28;21076;-41
2021/03/01 11:08:48;;;;;;;11.20;10.00;;;;;;;;;;5110486;28;20263;-42
2021/03/01 11:11:13;;;;;;;14.60;9.50;;;;;;;;;;5110689;28;20639;-42
2021/03/01 11:13:39;;;;;;;10.23;9.15;;;;;;;;;;5110705;28;20174;-41
2021/03/01 11:16:04;;;;;;;13.07;10.53;;;;;;;;;;5110278;28;20242;-41
2021/03/01 11:18:29;;;;;;;11.90;10.77;;;;;;;;;;5110248;28;20169;-42
2021/03/01 11:20:54;;;;;;;10.75;9.48;;;;;;;;;;5110639;28;20175;-41
2021/03/01 11:23:19;;;;;;;11.35;9.93;;;;;;;;;;5110163;28;20217;-42
2021/03/01 11:25:45;;;;;;;11.27;10.18;;;;;;;;;;5110427;28;20185;-41
2021/03/01 11:28:11;;;;;;;12.00;10.80;;;;;;;;;;5110265;28;20200;-41
2021/03/01 11:30:36;;;;;;;13.60;11.07;;;;;;;;;;5110422;28;20184;-42
2021/03/01 11:33:01;;;;;;;13.60;10.77;;;;;;;;;;5110088;28;20594;-41
2021/03/01 11:35:27;;;;;;;12.20;10.90;;;;;;;;;;5109883;28;20200;-44
2021/03/01 11:37:52;;;;;;;11.80;10.60;;;;;;;;;;5109792;28;20201;-42
2021/03/01 11:40:17;;;;;;;11.85;10.63;;;;;;;;;;5109920;28;20187;-41
2021/03/01 11:42:43;;;;;;;12.57;11.27;;;;;;;;;;5109931;28;20164;-42
2021/03/01 11:45:09;;;;;;;10.87;9.77;;;;;;;;;;5109252;28;20170;-42
2021/03/01 11:47:34;;;;;;;11.07;9.80;;;;;;;;;;5109669;28;20609;-42
2021/03/01 11:49:59;;;;;;;11.63;10.52;;;;;;;;;;5110123;28;20261;-42
2021/03/01 11:52:24;;;;;;;11.80;10.63;;;;;;;;;;5109723;28;20176;-42
2021/03/01 11:54:49;;;;;;;12.40;11.10;;;;;;;;;;5109475;28;20208;-41
2021/03/01 11:57:14;;;;;;;12.27;11.07;;;;;;;;;;5109986;28;20635;-41
2021/03/01 11:59:40;;;;;;;12.88;11.55;;;;;;;;;;5109670;28;20172;-42
2021/03/01 12:02:05;;;;;;;11.32;10.15;;;;;;;;;;5110016;28;20177;-42
2021/03/01 12:04:30;;;;;;;12.43;11.20;;;;;;;;;;5109542;28;20583;-42
2021/03/01 12:06:56;;;;;;;12.23;10.90;;;;;;;;;;5109703;28;20190;-42
2021/03/01 12:09:21;;;;;;;11.50;10.35;;;;;;;;;;5109312;28;20651;-42
2021/03/01 12:11:46;;;;;;;12.23;11.13;;;;;;;;;;5109708;28;20187;-41
2021/03/01 12:14:11;;;;;;;10.98;9.88;;;;;;;;;;5109530;28;20245;-42
2021/03/01 12:16:36;;;;;;;10.82;9.73;;;;;;;;;;5108869;28;20193;-44
2021/03/01 12:19:01;;;;;;;13.60;10.87;;;;;;;;;;5109536;28;20165;-41
2021/03/01 12:21:26;;;;;;;10.93;9.93;;;;;;;;;;5108992;28;20197;-42
2021/03/01 12:23:52;;;;;;;11.85;10.60;;;;;;;;;;5109632;28;20196;-42
2021/03/01 12:26:17;;;;;;;11.20;10.20;;;;;;;;;;5109477;28;20198;-42
2021/03/01 12:28:42;;;;;;;11.88;10.70;;;;;;;;;;5109237;28;20173;-41
2021/03/01 12:31:07;;;;;;;13.20;11.90;;;;;;;;;;5109384;28;20169;-42
2021/03/01 12:33:32;;;;;;;12.40;11.13;;;;;;;;;;5108877;28;20168;-42
2021/03/01 12:35:57;;;;;;;11.32;10.23;;;;;;;;;;5109648;28;20206;-42
2021/03/01 12:38:23;;;;;;;11.40;10.30;;;;;;;;;;5109114;28;20161;-42
2021/03/01 12:40:48;;;;;;;12.83;10.17;;;;;;;;;;5109109;28;20304;-42
2021/03/01 12:43:14;;;;;;;11.27;10.07;;;;;;;;;;5109370;28;20226;-42
2021/03/01 12:45:39;;;;;;;10.87;9.83;;;;;;;;;;5108679;28;20433;-42
2021/03/01 12:48:05;;;;;;;11.48;10.45;;;;;;;;;;5109151;28;20598;-42
2021/03/01 12:50:30;;;;;;;12.03;10.83;;;;;;;;;;5109054;28;20179;-42
2021/03/01 12:52:55;;;;;;;12.10;10.90;;;;;;;;;;5109215;28;20174;-47
2021/03/01 12:55:20;;;;;;;13.00;11.70;;;;;;;;;;5109003;28;20209;-42
2021/03/01 12:57:46;;;;;;;12.37;11.17;;;;;;;;;;5112171;28;20199;-46
2021/03/01 13:00:12;;;;;;;13.40;11.93;;;;;;;;;;5113106;28;20165;-42
2021/03/01 13:02:37;;;;;;;12.80;11.50;;;;;;;;;;5113216;28;20230;-42
2021/03/01 13:05:03;;;;;;;12.20;10.90;;;;;;;;;;5112775;28;20595;-42
2021/03/01 13:07:29;;;;;;;12.30;11.10;;;;;;;;;;5112815;28;20185;-42
2021/03/01 13:09:54;;;;;;;12.30;11.07;;;;;;;;;;5112519;28;20668;-42
2021/03/01 13:12:19;;;;;;;12.88;10.73;;;;;;;;;;5113229;28;20641;-42
2021/03/01 13:14:44;;;;;;;12.70;10.97;;;;;;;;;;5112896;28;20203;-42
2021/03/01 13:17:09;;;;;;;13.37;11.97;;;;;;;;;;5112582;28;20178;-42
2021/03/01 13:19:35;;;;;;;13.73;11.40;;;;;;;;;;5112742;28;20162;-42
2021/03/01 13:22:00;;;;;;;13.27;11.97;;;;;;;;;;5112880;28;20174;-43
2021/03/01 13:24:25;;;;;;;13.60;11.13;;;;;;;;;;5112723;28;20184;-42
2021/03/01 13:26:50;;;;;;;12.87;11.57;;;;;;;;;;5112719;28;20535;-41
2021/03/01 13:29:15;;;;;;;12.53;11.23;;;;;;;;;;5112575;28;20263;-42
2021/03/01 13:31:40;;;;;;;13.33;11.93;;;;;;;;;;5112630;28;20533;-42
2021/03/01 13:34:06;;;;;;;14.60;10.90;;;;;;;;;;5112708;28;20206;-41
2021/03/01 13:36:31;;;;;;;13.50;11.82;;;;;;;;;;5111900;28;20176;-42
2021/03/01 13:38:56;;;;;;;13.03;11.60;;;;;;;;;;5112429;28;20166;-42
2021/03/01 13:41:21;;;;;;;13.93;12.00;;;;;;;;;;5112286;28;20665;-42
2021/03/01 13:43:46;;;;;;;14.17;12.23;;;;;;;;;;5112510;28;20173;-42
2021/03/01 13:46:12;;;;;;;13.40;12.10;;;;;;;;;;5111987;28;20629;-42
2021/03/01 13:48:37;;;;;;;14.18;11.35;;;;;;;;;;5111783;28;20175;-41
2021/03/01 13:51:02;;;;;;;13.70;12.27;;;;;;;;;;5112321;28;20167;-42
2021/03/01 13:53:28;;;;;;;14.37;12.87;;;;;;;;;;5112132;28;20597;-41
2021/03/01 13:55:53;;;;;;;13.87;12.03;;;;;;;;;;5111901;28;20262;-41
2021/03/01 13:58:18;;;;;;;13.70;12.30;;;;;;;;;;5112403;28;20571;-42
2021/03/01 14:00:43;;;;;;;13.20;11.85;;;;;;;;;;5111892;28;20176;-41
2021/03/01 14:03:09;;;;;;;14.60;12.77;;;;;;;;;;5112120;28;20204;-41
2021/03/01 14:05:34;;;;;;;13.67;12.37;;;;;;;;;;5111500;28;20183;-41
2021/03/01 14:07:59;;;;;;;13.45;11.88;;;;;;;;;;5111768;28;20241;-42
2021/03/01 14:10:25;;;;;;;12.83;11.53;;;;;;;;;;5111689;28;20216;-42
2021/03/01 14:12:50;;;;;;;17.70;12.87;;;;;;;;;;5111676;28;20235;-41
2021/03/01 14:15:17;;;;;;;13.40;12.07;;;;;;;;;;5111677;28;20638;-42
2021/03/01 14:17:42;;;;;;;14.03;12.63;;;;;;;;;;5111270;28;20635;-42
2021/03/01 14:20:07;;;;;;;14.23;12.80;;;;;;;;;;5118898;27;20602;-42